Time;durP1;ratioP1;P1;durP2;ratioP2;P2;SDS_P1;SDS_P2;PMS_P1;PMS_P2;Temp;Humidity;BMP_temperature;BMP_pressure;BME280_temperature;BME280_humidity;BME280_pressure;Samples;Min_cycle;Max_cycle;Signal;HPM_P1;HPM_P2
2024/02/21 00:00:53;;;;;;;11.43;6.63;;;7.90;99.90;;;;;;5033060;28;20424;-92
2024/02/21 00:03:19;;;;;;;14.00;8.52;;;7.80;99.90;;;;;;5060184;28;20033;-91
2024/02/21 00:05:45;;;;;;;17.38;7.97;;;7.80;99.90;;;;;;5048481;28;20028;-92
2024/02/21 00:08:11;;;;;;;10.68;5.60;;;7.80;99.90;;;;;;5044189;28;20037;-91
2024/02/21 00:10:36;;;;;;;10.48;5.30;;;7.80;99.90;;;;;;5035932;28;20029;-91
2024/02/21 00:13:03;;;;;;;16.08;7.50;;;7.80;99.90;;;;;;5034839;28;20053;-91
2024/02/21 00:15:29;;;;;;;7.70;5.05;;;7.80;99.90;;;;;;5031446;28;20029;-92
2024/02/21 00:17:54;;;;;;;8.85;5.43;;;7.70;99.90;;;;;;5048768;28;20028;-91
2024/02/21 00:20:20;;;;;;;11.00;6.45;;;7.70;99.90;;;;;;5035450;28;20116;-91
2024/02/21 00:22:46;;;;;;;8.93;4.70;;;7.70;99.90;;;;;;5034473;28;20476;-90
2024/02/21 00:25:12;;;;;;;8.98;5.43;;;7.70;99.90;;;;;;5034170;28;20017;-90
2024/02/21 00:27:39;;;;;;;10.90;6.03;;;7.70;99.90;;;;;;5034376;28;20624;-92
2024/02/21 00:30:06;;;;;;;11.73;6.28;;;7.70;99.90;;;;;;5035223;28;20025;-92
2024/02/21 00:32:34;;;;;;;12.18;5.95;;;7.70;99.90;;;;;;5034783;28;20041;-91
2024/02/21 00:35:01;;;;;;;15.00;7.47;;;7.70;99.90;;;;;;5033714;28;20116;-91
2024/02/21 00:37:27;;;;;;;11.27;7.05;;;7.80;99.90;;;;;;5034002;28;20033;-91
2024/02/21 00:39:54;;;;;;;10.48;5.93;;;7.80;99.90;;;;;;5034075;28;20593;-91
2024/02/21 00:42:21;;;;;;;10.40;5.85;;;7.90;99.90;;;;;;5032039;28;20085;-91
2024/02/21 00:44:47;;;;;;;14.00;7.15;;;7.90;99.90;;;;;;5026026;28;20030;-92
2024/02/21 00:47:12;;;;;;;15.00;7.25;;;7.90;99.90;;;;;;5033073;28;20029;-91
2024/02/21 00:49:38;;;;;;;10.25;5.60;;;7.90;99.90;;;;;;5050076;28;20037;-91
2024/02/21 00:52:04;;;;;;;12.85;7.13;;;7.90;99.90;;;;;;5033630;28;20053;-91
2024/02/21 00:54:29;;;;;;;15.02;7.07;;;7.90;99.90;;;;;;5034381;28;20479;-91
2024/02/21 00:56:55;;;;;;;16.77;7.35;;;7.80;99.90;;;;;;5030772;28;20032;-91
2024/02/21 00:59:21;;;;;;;11.05;5.57;;;7.90;99.90;;;;;;5030798;28;20097;-91
2024/02/21 01:01:47;;;;;;;15.65;7.57;;;7.80;99.90;;;;;;5030986;28;20476;-92
2024/02/21 01:04:12;;;;;;;13.85;6.75;;;7.70;99.90;;;;;;5031148;28;20113;-91
2024/02/21 01:06:38;;;;;;;10.55;6.72;;;7.70;99.90;;;;;;5031320;28;20041;-91
2024/02/21 01:09:04;;;;;;;10.77;5.95;;;7.70;99.90;;;;;;5015720;28;20021;-91
2024/02/21 01:11:30;;;;;;;8.57;5.60;;;7.70;99.90;;;;;;5031372;28;20025;-91
2024/02/21 01:13:56;;;;;;;8.85;5.47;;;7.70;99.90;;;;;;5030806;28;20494;-91
2024/02/21 01:16:22;;;;;;;13.85;7.82;;;7.70;99.90;;;;;;5031119;28;20036;-92
2024/02/21 01:18:47;;;;;;;11.10;5.60;;;7.80;99.90;;;;;;5028521;28;20112;-90
2024/02/21 01:21:13;;;;;;;10.20;5.85;;;7.80;99.90;;;;;;5025330;28;20030;-90
2024/02/21 01:23:39;;;;;;;10.57;6.13;;;7.80;99.90;;;;;;5042183;28;20549;-91
2024/02/21 01:26:08;;;;;;;16.48;6.45;;;7.80;99.90;;;;;;5041081;28;20029;-92
2024/02/21 01:28:34;;;;;;;11.60;6.47;;;7.90;99.90;;;;;;5043522;28;20478;-91
2024/02/21 01:31:00;;;;;;;12.00;6.57;;;7.90;99.90;;;;;;5034793;28;20124;-91
2024/02/21 01:33:26;;;;;;;11.98;6.35;;;7.90;99.90;;;;;;5032028;28;20033;-91
2024/02/21 01:35:52;;;;;;;11.65;6.10;;;7.90;99.90;;;;;;5033296;28;20449;-91
2024/02/21 01:38:18;;;;;;;9.70;5.70;;;7.90;99.90;;;;;;5050913;28;20032;-91
2024/02/21 01:40:44;;;;;;;11.23;6.55;;;7.90;99.90;;;;;;5030591;28;20093;-91
2024/02/21 01:43:18;;;;;;;10.75;6.28;;;7.90;99.90;;;;;;5013808;28;20120;-91
2024/02/21 01:45:57;;;;;;;10.15;6.30;;;8.00;99.90;;;;;;5013827;28;20030;-90
2024/02/21 01:48:24;;;;;;;8.70;5.38;;;7.90;99.90;;;;;;5014061;28;20049;-92
2024/02/21 01:50:50;;;;;;;11.20;6.22;;;8.00;99.90;;;;;;5014550;28;20500;-92
2024/02/21 01:53:27;;;;;;;13.20;6.03;;;8.00;99.90;;;;;;5030585;28;20129;-92
2024/02/21 01:55:53;;;;;;;9.65;5.97;;;8.00;99.90;;;;;;5014717;28;20113;-92
2024/02/21 01:58:20;;;;;;;12.40;7.07;;;8.00;99.90;;;;;;5013665;28;20026;-91
2024/02/21 02:00:47;;;;;;;10.88;5.68;;;8.00;99.90;;;;;;5013740;28;20080;-91
2024/02/21 02:03:16;;;;;;;14.05;6.93;;;8.00;99.90;;;;;;5014264;28;20536;-92
2024/02/21 02:05:50;;;;;;;15.90;7.57;;;8.00;99.90;;;;;;5014007;28;20052;-92
2024/02/21 02:08:17;;;;;;;12.27;7.47;;;8.00;99.90;;;;;;5030636;28;20041;-91
2024/02/21 02:10:43;;;;;;;14.35;7.55;;;8.00;99.90;;;;;;5015527;28;20113;-91
2024/02/21 02:13:10;;;;;;;10.40;7.00;;;8.00;99.90;;;;;;5014948;28;20041;-92
2024/02/21 02:15:42;;;;;;;12.63;7.07;;;8.00;99.90;;;;;;5028335;28;20022;-92
2024/02/21 02:18:09;;;;;;;10.52;6.53;;;8.10;99.90;;;;;;5035714;28;20022;-91
2024/02/21 02:20:35;;;;;;;12.00;7.07;;;8.10;99.90;;;;;;5034479;28;20025;-92
2024/02/21 02:23:08;;;;;;;10.70;6.35;;;8.00;99.90;;;;;;5024305;28;20034;-92
2024/02/21 02:25:35;;;;;;;10.82;7.13;;;8.10;99.90;;;;;;5026985;28;20026;-92
2024/02/21 02:28:00;;;;;;;12.30;6.72;;;8.10;99.90;;;;;;5017651;28;20028;-92
2024/02/21 02:30:29;;;;;;;10.63;5.95;;;8.10;99.90;;;;;;5013563;28;20026;-91
2024/02/21 02:32:55;;;;;;;10.57;5.85;;;8.10;99.90;;;;;;5013139;28;20030;-91
2024/02/21 02:35:20;;;;;;;11.10;6.38;;;8.10;99.90;;;;;;5013717;28;20084;-90
2024/02/21 02:37:53;;;;;;;9.68;5.82;;;8.20;99.90;;;;;;5014561;28;20034;-92
2024/02/21 02:40:19;;;;;;;11.23;6.30;;;8.10;99.90;;;;;;5035123;28;20473;-92
2024/02/21 02:42:45;;;;;;;10.27;6.90;;;8.20;99.90;;;;;;5018161;28;20073;-89
2024/02/21 02:45:13;;;;;;;11.55;7.07;;;8.20;99.90;;;;;;5017572;28;20018;-92
2024/02/21 02:47:40;;;;;;;12.25;7.65;;;8.20;99.90;;;;;;5019301;28;20085;-93
2024/02/21 02:50:06;;;;;;;12.02;7.10;;;8.20;99.90;;;;;;5017180;28;20018;-91
2024/02/21 02:52:32;;;;;;;16.17;8.23;;;8.30;99.90;;;;;;5016072;28;20026;-90
2024/02/21 02:54:58;;;;;;;14.85;8.18;;;8.30;99.90;;;;;;5015571;28;20052;-91
2024/02/21 02:57:24;;;;;;;13.63;8.05;;;8.20;99.90;;;;;;5031202;28;20030;-91
2024/02/21 02:59:51;;;;;;;14.50;7.82;;;8.30;99.90;;;;;;5014249;28;20061;-91
2024/02/21 03:02:18;;;;;;;15.00;8.23;;;8.30;99.90;;;;;;5014877;28;20022;-90
2024/02/21 03:04:44;;;;;;;15.90;7.13;;;8.30;99.90;;;;;;5014104;28;20030;-92
2024/02/21 03:07:13;;;;;;;13.23;8.57;;;8.30;99.90;;;;;;5013837;28;20461;-91
2024/02/21 03:09:39;;;;;;;18.65;8.80;;;8.30;99.90;;;;;;5014509;28;20037;-91
2024/02/21 03:12:06;;;;;;;18.52;9.20;;;8.30;99.90;;;;;;5030328;28;20030;-91
2024/02/21 03:14:34;;;;;;;17.75;9.93;;;8.40;99.90;;;;;;5017191;28;20029;-91
2024/02/21 03:17:00;;;;;;;13.63;7.60;;;8.40;99.90;;;;;;5017331;28;20084;-91
2024/02/21 03:19:26;;;;;;;13.50;8.38;;;8.30;99.90;;;;;;5018531;28;20112;-91
2024/02/21 03:21:52;;;;;;;13.23;9.15;;;8.40;99.90;;;;;;5019056;28;20458;-91
2024/02/21 03:24:21;;;;;;;16.40;9.18;;;8.30;99.90;;;;;;5019711;28;20107;-91
2024/02/21 03:26:48;;;;;;;16.75;8.98;;;8.40;99.90;;;;;;5035435;28;20137;-91
2024/02/21 03:29:15;;;;;;;18.17;8.73;;;8.40;99.90;;;;;;5020052;28;20036;-90
2024/02/21 03:31:42;;;;;;;12.38;7.63;;;8.40;99.90;;;;;;5019210;28;20048;-92
2024/02/21 03:34:10;;;;;;;13.30;8.48;;;8.40;99.90;;;;;;5018535;28;20021;-91
2024/02/21 03:36:36;;;;;;;13.23;9.27;;;8.40;99.90;;;;;;5019077;28;20033;-92
2024/02/21 03:39:02;;;;;;;16.70;7.95;;;8.40;99.90;;;;;;5018985;28;20427;-92
2024/02/21 03:41:28;;;;;;;17.92;8.45;;;8.40;99.90;;;;;;5040163;28;20033;-90
2024/02/21 03:43:54;;;;;;;13.27;7.38;;;8.40;99.90;;;;;;5031984;28;20034;-91
2024/02/21 03:46:20;;;;;;;19.98;7.35;;;8.40;99.90;;;;;;5032575;28;20063;-91
2024/02/21 03:48:46;;;;;;;13.20;6.60;;;8.40;99.90;;;;;;5028742;28;20029;-91
2024/02/21 03:51:12;;;;;;;12.95;6.50;;;8.40;99.90;;;;;;5035039;28;20064;-91
2024/02/21 03:53:37;;;;;;;8.48;5.20;;;8.40;99.90;;;;;;5039410;28;20018;-90
2024/02/21 03:56:04;;;;;;;8.88;5.15;;;8.40;99.90;;;;;;5034409;28;20030;-91
2024/02/21 03:58:33;;;;;;;10.50;4.85;;;8.40;99.90;;;;;;5026645;28;20025;-90
2024/02/21 04:01:02;;;;;;;7.38;3.88;;;8.40;99.90;;;;;;5025983;28;20026;-91
2024/02/21 04:03:29;;;;;;;11.97;4.00;;;8.40;99.90;;;;;;5029592;28;20058;-89
2024/02/21 04:05:54;;;;;;;5.90;4.10;;;8.40;99.90;;;;;;5032583;28;20038;-90
2024/02/21 04:08:21;;;;;;;5.43;3.47;;;8.40;99.90;;;;;;5021586;28;20082;-92
2024/02/21 04:10:47;;;;;;;6.95;3.53;;;8.40;99.90;;;;;;5037543;28;20026;-89
2024/02/21 04:13:13;;;;;;;3.30;2.88;;;8.40;99.90;;;;;;5054624;28;20030;-92
2024/02/21 04:15:39;;;;;;;4.60;3.17;;;8.40;99.90;;;;;;5037667;28;20061;-92
2024/02/21 04:18:06;;;;;;;4.80;3.00;;;8.40;99.90;;;;;;5032548;28;20022;-91
2024/02/21 04:20:32;;;;;;;6.18;3.22;;;8.40;99.90;;;;;;5034942;28;20106;-92
2024/02/21 04:22:58;;;;;;;2.58;2.38;;;8.40;99.90;;;;;;5021619;28;20058;-91
2024/02/21 04:25:24;;;;;;;4.60;2.38;;;8.40;99.90;;;;;;5017971;28;20026;-91
2024/02/21 04:27:50;;;;;;;2.75;2.13;;;8.40;99.90;;;;;;5018501;28;20033;-92
2024/02/21 04:30:16;;;;;;;5.78;2.10;;;8.40;99.90;;;;;;5016772;28;20026;-92
2024/02/21 04:32:42;;;;;;;3.55;1.88;;;8.40;99.90;;;;;;5016881;28;20650;-92
2024/02/21 04:35:08;;;;;;;4.25;1.67;;;8.40;99.90;;;;;;5032602;28;20061;-92
2024/02/21 04:37:34;;;;;;;2.50;1.60;;;8.40;99.90;;;;;;5017279;28;20129;-92
2024/02/21 04:40:00;;;;;;;2.00;1.67;;;8.40;99.90;;;;;;5032489;28;20490;-93
2024/02/21 04:42:26;;;;;;;2.75;1.55;;;8.40;99.90;;;;;;5035990;28;20041;-92
2024/02/21 04:44:51;;;;;;;3.75;1.75;;;8.40;99.90;;;;;;5035902;28;20032;-91
2024/02/21 04:47:18;;;;;;;1.65;1.27;;;8.40;99.90;;;;;;5036520;28;20040;-92
2024/02/21 04:49:44;;;;;;;4.22;1.70;;;8.40;99.90;;;;;;5035822;28;20025;-93
2024/02/21 04:52:10;;;;;;;1.95;1.63;;;8.40;99.90;;;;;;5035332;28;20112;-92
2024/02/21 04:54:35;;;;;;;1.83;1.30;;;8.40;99.90;;;;;;5035386;28;20071;-92
2024/02/21 04:57:01;;;;;;;2.20;1.67;;;8.40;99.90;;;;;;5035201;28;20033;-91
2024/02/21 04:59:27;;;;;;;3.67;1.50;;;8.40;99.90;;;;;;5035005;28;20120;-93
2024/02/21 05:01:53;;;;;;;2.30;1.23;;;8.40;99.90;;;;;;5035557;28;20112;-92
2024/02/21 05:04:18;;;;;;;1.15;0.93;;;8.40;99.90;;;;;;5034959;28;20033;-92
2024/02/21 05:06:44;;;;;;;2.22;0.98;;;8.40;99.90;;;;;;5035288;28;20056;-92
2024/02/21 05:09:10;;;;;;;1.00;0.90;;;8.40;99.90;;;;;;5034822;28;20116;-93
2024/02/21 05:11:37;;;;;;;0.73;0.70;;;8.40;99.90;;;;;;5035301;28;20025;-92
2024/02/21 05:14:04;;;;;;;3.47;1.30;;;8.40;99.90;;;;;;5035209;28;20017;-91
2024/02/21 05:16:33;;;;;;;0.77;0.70;;;8.40;99.90;;;;;;5034960;28;20029;-92
2024/02/21 05:19:00;;;;;;;1.17;0.95;;;8.40;99.90;;;;;;5035336;28;20037;-92
2024/02/21 05:21:28;;;;;;;0.95;0.70;;;8.40;99.90;;;;;;5035641;28;20031;-91
2024/02/21 05:23:54;;;;;;;0.60;0.60;;;8.40;99.90;;;;;;5035467;28;20117;-92
2024/02/21 05:26:24;;;;;;;0.68;0.68;;;8.40;99.90;;;;;;5035650;28;20494;-91
2024/02/21 05:28:50;;;;;;;0.68;0.68;;;8.40;99.90;;;;;;5035480;28;20095;-91
2024/02/21 05:31:20;;;;;;;0.50;0.50;;;8.40;99.90;;;;;;5034932;28;20029;-91
2024/02/21 05:33:46;;;;;;;2.92;0.60;;;8.40;99.90;;;;;;5034954;28;20120;-92
2024/02/21 05:36:13;;;;;;;0.50;0.50;;;8.40;99.90;;;;;;5034861;28;20091;-91
2024/02/21 05:38:39;;;;;;;0.68;0.45;;;8.50;99.90;;;;;;5035120;28;20700;-91
2024/02/21 05:41:05;;;;;;;0.70;0.30;;;8.50;99.90;;;;;;5035229;28;20152;-92
2024/02/21 05:43:31;;;;;;;0.43;0.40;;;8.50;99.90;;;;;;5035347;28;20041;-92
2024/02/21 05:45:57;;;;;;;0.52;0.40;;;8.40;99.90;;;;;;5035325;28;20035;-91
2024/02/21 05:48:23;;;;;;;0.40;0.40;;;8.40;99.90;;;;;;5042111;28;20108;-91
2024/02/21 05:50:49;;;;;;;1.02;0.40;;;8.50;99.90;;;;;;5038404;28;20091;-92
2024/02/21 05:53:15;;;;;;;1.35;0.60;;;8.40;99.90;;;;;;5042953;28;20026;-90
2024/02/21 05:55:41;;;;;;;0.40;0.40;;;8.40;99.90;;;;;;5047729;28;20025;-91
2024/02/21 05:58:07;;;;;;;0.40;0.40;;;8.40;99.90;;;;;;5047233;28;20030;-91
2024/02/21 06:00:33;;;;;;;1.50;0.50;;;8.40;99.90;;;;;;5035400;28;20030;-92
2024/02/21 06:02:59;;;;;;;0.50;0.43;;;8.40;99.90;;;;;;5034063;28;20021;-91
2024/02/21 06:05:25;;;;;;;1.27;0.50;;;8.40;99.90;;;;;;5033821;28;20025;-93
2024/02/21 06:07:51;;;;;;;0.65;0.57;;;8.40;99.90;;;;;;5033698;28;20041;-91
2024/02/21 06:10:16;;;;;;;0.52;0.45;;;8.40;99.90;;;;;;5033506;28;20048;-94
2024/02/21 06:12:42;;;;;;;0.57;0.50;;;8.40;99.90;;;;;;5033099;28;20391;-91
2024/02/21 06:15:08;;;;;;;1.33;0.60;;;8.40;99.90;;;;;;5033403;28;20036;-92
2024/02/21 06:17:34;;;;;;;2.17;1.05;;;8.40;99.90;;;;;;5033995;28;20068;-92
2024/02/21 06:20:00;;;;;;;0.73;0.50;;;8.40;99.90;;;;;;5034342;28;20505;-92
2024/02/21 06:22:25;;;;;;;4.50;0.65;;;8.40;99.90;;;;;;5034410;28;20415;-93
2024/02/21 06:24:51;;;;;;;2.03;0.60;;;8.40;99.90;;;;;;5033605;28;20064;-92
2024/02/21 06:27:17;;;;;;;1.00;0.60;;;8.40;99.90;;;;;;5033014;28;20497;-93
2024/02/21 06:29:43;;;;;;;0.80;0.60;;;8.30;99.90;;;;;;5033964;28;20072;-92
2024/02/21 06:32:08;;;;;;;0.90;0.50;;;8.30;99.90;;;;;;5035582;28;20029;-93
2024/02/21 06:34:34;;;;;;;2.05;0.70;;;8.30;99.90;;;;;;5034118;28;20036;-93
2024/02/21 06:37:00;;;;;;;0.98;0.80;;;8.30;99.90;;;;;;5033492;28;20418;-93
2024/02/21 06:39:26;;;;;;;1.15;0.73;;;8.20;99.90;;;;;;5033852;28;20031;-92
2024/02/21 06:41:53;;;;;;;0.90;0.80;;;8.20;99.90;;;;;;5033942;28;20056;-92
2024/02/21 06:44:19;;;;;;;2.45;1.05;;;8.20;99.90;;;;;;5033651;28;20487;-92
2024/02/21 06:46:45;;;;;;;1.20;0.90;;;8.20;99.90;;;;;;5033772;28;20041;-92
2024/02/21 06:49:17;;;;;;;2.67;0.85;;;8.10;99.90;;;;;;5036194;28;20022;-92
2024/02/21 06:51:43;;;;;;;0.77;0.70;;;8.10;99.90;;;;;;5038392;28;20033;-93
2024/02/21 06:54:12;;;;;;;1.73;0.70;;;8.10;99.90;;;;;;5037570;28;20041;-93
2024/02/21 06:56:40;;;;;;;2.35;0.77;;;8.00;99.90;;;;;;5037082;28;20026;-92
2024/02/21 06:59:06;;;;;;;1.63;0.88;;;8.00;99.90;;;;;;5037442;28;20025;-92
2024/02/21 07:01:32;;;;;;;2.30;0.80;;;8.00;99.90;;;;;;5037508;28;20080;-92
2024/02/21 07:03:58;;;;;;;2.58;0.90;;;7.90;99.90;;;;;;5036932;28;20036;-93
2024/02/21 07:06:24;;;;;;;1.02;0.73;;;7.90;99.90;;;;;;5037039;28;20491;-91
2024/02/21 07:08:50;;;;;;;2.08;1.13;;;7.80;99.90;;;;;;5037373;28;20060;-92
2024/02/21 07:11:15;;;;;;;0.98;0.90;;;7.80;99.90;;;;;;5036891;28;20391;-92
2024/02/21 07:13:41;;;;;;;1.48;0.98;;;7.80;99.90;;;;;;5037533;28;20697;-93
2024/02/21 07:16:07;;;;;;;2.38;1.30;;;7.70;99.90;;;;;;5037201;28;20028;-92
2024/02/21 07:18:34;;;;;;;1.67;1.23;;;7.70;99.90;;;;;;5036952;28;20025;-93
2024/02/21 07:21:00;;;;;;;2.78;1.10;;;7.60;99.90;;;;;;5036780;28;20022;-92
2024/02/21 07:23:25;;;;;;;3.15;1.20;;;7.60;99.90;;;;;;5036555;28;20040;-92
2024/02/21 07:25:51;;;;;;;4.07;2.25;;;7.60;99.90;;;;;;5037073;28;20032;-92
2024/02/21 07:28:17;;;;;;;2.55;1.20;;;7.60;99.90;;;;;;5048346;28;20091;-92
2024/02/21 07:30:43;;;;;;;3.28;1.30;;;7.60;99.90;;;;;;5018266;28;20093;-93
2024/02/21 07:33:09;;;;;;;2.05;1.02;;;7.60;99.90;;;;;;5035945;28;20490;-92
2024/02/21 07:35:37;;;;;;;2.45;1.40;;;7.60;99.90;;;;;;5034609;28;20028;-93
2024/02/21 07:38:04;;;;;;;3.58;1.05;;;7.60;99.90;;;;;;5017024;28;20513;-92
2024/02/21 07:40:30;;;;;;;2.58;1.23;;;7.60;99.90;;;;;;5036206;28;20040;-93
2024/02/21 07:42:56;;;;;;;4.70;1.10;;;7.60;99.90;;;;;;5035266;28;20041;-92
2024/02/21 07:45:24;;;;;;;4.47;1.42;;;7.50;99.90;;;;;;5054708;28;20493;-92
2024/02/21 07:47:50;;;;;;;1.65;1.10;;;7.50;99.90;;;;;;5036235;28;20216;-93
2024/02/21 07:50:16;;;;;;;1.88;1.25;;;7.50;99.90;;;;;;5046739;28;20530;-92
2024/02/21 07:52:42;;;;;;;2.08;1.20;;;7.50;99.90;;;;;;5045588;28;20072;-92
2024/02/21 07:55:10;;;;;;;7.78;1.67;;;7.50;99.90;;;;;;5045431;28;20474;-92
2024/02/21 07:57:36;;;;;;;2.83;1.17;;;7.50;99.90;;;;;;5032863;28;20037;-94
2024/02/21 08:00:04;;;;;;;2.65;1.40;;;7.50;99.90;;;;;;5028433;28;20030;-92
2024/02/21 08:02:29;;;;;;;4.53;1.40;;;7.50;99.90;;;;;;5033388;28;20176;-92
2024/02/21 08:04:55;;;;;;;4.15;1.33;;;7.50;99.90;;;;;;5032826;28;20490;-92
2024/02/21 08:07:21;;;;;;;2.03;1.15;;;7.50;99.90;;;;;;5035032;28;20052;-92
2024/02/21 08:09:48;;;;;;;3.42;1.08;;;7.60;99.90;;;;;;5030908;28;20079;-93
2024/02/21 08:12:13;;;;;;;3.28;1.65;;;7.50;99.90;;;;;;5036104;28;20045;-94
2024/02/21 08:14:39;;;;;;;3.05;1.15;;;7.60;99.90;;;;;;5052535;28;20030;-95
2024/02/21 08:17:05;;;;;;;2.05;1.20;;;7.60;99.90;;;;;;5035395;28;20112;-93
2024/02/21 08:19:31;;;;;;;2.92;1.33;;;7.50;99.90;;;;;;5035645;28;20075;-93
2024/02/21 08:21:56;;;;;;;1.70;1.10;;;7.60;99.90;;;;;;5036081;28;20021;-94
2024/02/21 08:24:23;;;;;;;1.00;0.90;;;7.60;99.90;;;;;;5035622;28;20112;-93
2024/02/21 08:26:49;;;;;;;2.22;1.10;;;7.60;99.90;;;;;;5035990;28;20037;-93
2024/02/21 08:29:15;;;;;;;2.67;1.30;;;7.60;99.90;;;;;;5051754;28;20021;-93
2024/02/21 08:31:40;;;;;;;3.72;1.15;;;7.60;99.90;;;;;;5034665;28;20079;-93
2024/02/21 08:34:06;;;;;;;1.38;1.10;;;7.60;99.90;;;;;;5035125;28;20213;-94
2024/02/21 08:36:33;;;;;;;1.90;0.98;;;7.70;99.90;;;;;;5035205;28;20017;-94
2024/02/21 08:39:00;;;;;;;1.58;1.02;;;7.70;99.90;;;;;;5034793;28;20025;-94
2024/02/21 08:41:26;;;;;;;1.90;1.05;;;7.70;99.90;;;;;;5034850;28;20037;-94
2024/02/21 08:43:53;;;;;;;1.15;0.95;;;7.70;99.90;;;;;;5034612;28;20030;-93
2024/02/21 08:46:24;;;;;;;1.70;1.17;;;7.70;99.90;;;;;;5033013;28;20041;-93
2024/02/21 08:48:51;;;;;;;2.15;0.90;;;7.70;99.90;;;;;;5032741;28;20033;-94
2024/02/21 08:51:17;;;;;;;2.95;1.08;;;7.80;99.90;;;;;;5030881;28;20161;-91
2024/02/21 08:53:43;;;;;;;1.50;1.08;;;7.80;99.90;;;;;;5031630;28;20018;-93
2024/02/21 08:56:09;;;;;;;1.58;0.93;;;7.80;99.90;;;;;;5035292;28;20482;-93
2024/02/21 08:58:36;;;;;;;1.08;0.88;;;7.80;99.90;;;;;;5035283;28;20108;-93
2024/02/21 09:01:04;;;;;;;2.60;1.00;;;7.80;99.90;;;;;;5031197;28;20405;-92
2024/02/21 09:03:31;;;;;;;0.80;0.80;;;7.80;99.90;;;;;;5029658;28;20410;-93
2024/02/21 09:05:58;;;;;;;1.90;0.80;;;7.80;99.90;;;;;;5045234;28;20028;-93
2024/02/21 09:08:24;;;;;;;2.20;0.70;;;7.90;99.90;;;;;;5033801;28;20088;-93
2024/02/21 09:10:50;;;;;;;0.43;0.40;;;7.90;99.90;;;;;;5033706;28;20025;-93
2024/02/21 09:13:15;;;;;;;0.45;0.45;;;7.90;99.90;;;;;;5021560;28;20096;-92
2024/02/21 09:15:42;;;;;;;0.50;0.40;;;7.90;99.90;;;;;;5029556;28;20060;-92
2024/02/21 09:18:08;;;;;;;2.72;0.70;;;8.00;99.90;;;;;;5036584;28;20030;-94
2024/02/21 09:20:34;;;;;;;0.47;0.47;;;8.00;99.90;;;;;;5035279;28;20028;-93
2024/02/21 09:22:59;;;;;;;0.50;0.40;;;8.00;99.90;;;;;;5032966;28;20021;-92
2024/02/21 09:25:25;;;;;;;2.40;0.30;;;8.00;99.90;;;;;;5042847;28;20045;-92
2024/02/21 09:27:58;;;;;;;0.75;0.50;;;8.00;99.90;;;;;;5042267;28;20044;-92
2024/02/21 09:30:24;;;;;;;4.85;0.60;;;8.10;99.90;;;;;;5045942;28;20103;-93
2024/02/21 09:32:52;;;;;;;0.70;0.50;;;8.10;99.90;;;;;;5053634;28;20022;-94
2024/02/21 09:35:18;;;;;;;1.15;0.70;;;8.10;99.90;;;;;;5047126;28;20009;-94
2024/02/21 09:37:44;;;;;;;0.57;0.35;;;8.10;99.90;;;;;;5047747;28;20028;-94
2024/02/21 09:40:10;;;;;;;2.58;0.45;;;8.20;99.90;;;;;;5032843;28;20029;-95
2024/02/21 09:42:40;;;;;;;0.57;0.57;;;8.20;99.90;;;;;;5031598;28;20041;-92
2024/02/21 09:45:22;;;;;;;0.20;0.20;;;8.20;99.90;;;;;;5047077;28;20062;-94
2024/02/21 09:48:26;;;;;;;0.70;0.60;;;8.20;99.90;;;;;;5028904;28;20048;-95
2024/02/21 09:50:55;;;;;;;0.65;0.50;;;8.20;99.90;;;;;;5039689;28;20033;-94
2024/02/21 09:53:22;;;;;;;0.50;0.32;;;8.20;99.90;;;;;;5043170;28;20022;-94
2024/02/21 09:55:49;;;;;;;2.00;0.47;;;8.30;99.90;;;;;;5039837;28;20022;-95
2024/02/21 09:58:15;;;;;;;0.77;0.77;;;8.30;99.90;;;;;;5052389;28;20109;-95
2024/02/21 10:00:40;;;;;;;1.48;0.73;;;8.30;99.90;;;;;;5034473;28;20323;-92
2024/02/21 10:03:09;;;;;;;0.73;0.30;;;8.30;99.90;;;;;;5031044;28;20026;-93
2024/02/21 10:05:35;;;;;;;1.50;0.50;;;8.30;99.90;;;;;;5033029;28;20025;-91
2024/02/21 10:08:02;;;;;;;0.63;0.30;;;8.40;99.90;;;;;;5032534;28;20037;-93
2024/02/21 10:10:29;;;;;;;1.63;0.40;;;8.40;99.90;;;;;;5031743;28;20026;-93
2024/02/21 10:12:57;;;;;;;2.20;0.38;;;8.40;99.90;;;;;;5031431;28;20096;-91
2024/02/21 10:15:24;;;;;;;0.75;0.40;;;8.50;99.90;;;;;;5047951;28;20021;-92
2024/02/21 10:17:58;;;;;;;0.20;0.20;;;8.40;99.90;;;;;;5032564;28;20043;-92
2024/02/21 10:20:24;;;;;;;0.73;0.32;;;8.50;99.90;;;;;;5032828;28;20044;-93
2024/02/21 10:23:07;;;;;;;0.52;0.38;;;8.50;99.90;;;;;;5043300;28;20036;-94
2024/02/21 10:25:43;;;;;;;2.08;0.30;;;8.50;99.90;;;;;;5041320;28;20049;-94
2024/02/21 10:28:11;;;;;;;0.35;0.35;;;8.50;99.90;;;;;;5037725;28;20038;-92
2024/02/21 10:30:37;;;;;;;0.30;0.30;;;8.50;99.90;;;;;;5036246;28;20037;-93
2024/02/21 10:33:05;;;;;;;0.85;0.20;;;8.50;99.90;;;;;;5036364;28;20040;-91
2024/02/21 10:35:32;;;;;;;0.32;0.32;;;8.60;99.90;;;;;;5036431;28;20501;-93
2024/02/21 10:37:59;;;;;;;0.57;0.22;;;8.60;99.90;;;;;;5030483;28;20172;-94
2024/02/21 10:40:30;;;;;;;0.20;0.20;;;8.60;99.90;;;;;;5016065;28;20030;-92
2024/02/21 10:43:00;;;;;;;0.65;0.30;;;8.60;99.90;;;;;;5015984;28;20077;-93
2024/02/21 10:45:35;;;;;;;1.40;0.45;;;8.60;99.90;;;;;;5017178;28;20467;-92
2024/02/21 10:48:14;;;;;;;0.25;0.25;;;8.70;99.90;;;;;;5016454;28;20061;-93
2024/02/21 10:51:11;;;;;;;2.75;1.02;;;8.70;99.90;;;;;;5015830;28;20502;-91
2024/02/21 10:54:07;;;;;;;1.50;0.30;;;8.70;99.90;;;;;;5016235;28;20038;-93
2024/02/21 10:56:37;;;;;;;0.55;0.40;;;8.70;99.90;;;;;;5016737;28;20042;-94
2024/02/21 10:59:04;;;;;;;0.68;0.50;;;8.70;99.90;;;;;;5015782;28;20026;-91
2024/02/21 11:01:31;;;;;;;0.40;0.30;;;8.80;99.90;;;;;;5016477;28;20060;-91
2024/02/21 11:04:01;;;;;;;0.40;0.40;;;8.80;99.90;;;;;;5017071;28;20486;-90
2024/02/21 11:06:28;;;;;;;0.73;0.30;;;8.80;99.90;;;;;;5016388;28;20065;-92
2024/02/21 11:09:08;;;;;;;0.55;0.40;;;8.80;99.90;;;;;;5015510;28;20034;-94
2024/02/21 11:11:38;;;;;;;0.32;0.20;;;8.80;99.90;;;;;;5032075;28;20116;-91
2024/02/21 11:14:07;;;;;;;0.20;0.20;;;8.80;99.90;;;;;;5030032;28;20053;-91
2024/02/21 11:16:38;;;;;;;2.33;0.50;;;8.80;99.90;;;;;;5033299;28;20426;-90
2024/02/21 11:19:10;;;;;;;3.58;0.38;;;8.80;99.90;;;;;;5034450;28;20033;-92
2024/02/21 11:21:37;;;;;;;0.47;0.47;;;8.80;99.90;;;;;;5034881;28;20478;-91
2024/02/21 11:24:06;;;;;;;1.13;0.30;;;8.90;99.90;;;;;;5032450;28;20026;-91
2024/02/21 11:26:32;;;;;;;0.38;0.38;;;8.90;99.90;;;;;;5030450;28;20096;-93
2024/02/21 11:29:05;;;;;;;0.50;0.40;;;8.90;99.90;;;;;;5028683;28;20120;-93
2024/02/21 11:31:41;;;;;;;1.23;0.30;;;8.90;99.90;;;;;;5031667;28;20057;-94
2024/02/21 11:34:17;;;;;;;2.10;0.40;;;9.00;99.90;;;;;;5031470;28;20018;-93
2024/02/21 11:36:52;;;;;;;1.27;0.45;;;9.00;99.90;;;;;;5031896;28;20133;-92
2024/02/21 11:39:21;;;;;;;0.47;0.47;;;9.00;99.90;;;;;;5032131;28;20032;-92
2024/02/21 11:41:59;;;;;;;0.85;0.30;;;9.00;99.90;;;;;;5031348;28;20072;-93
2024/02/21 11:44:25;;;;;;;2.00;0.63;;;9.10;99.90;;;;;;5034301;28;20041;-92
2024/02/21 11:46:51;;;;;;;1.65;0.60;;;9.10;99.90;;;;;;5029010;28;20100;-92
2024/02/21 11:49:16;;;;;;;0.75;0.40;;;9.10;99.90;;;;;;5033302;28;20053;-91
2024/02/21 11:51:42;;;;;;;0.63;0.38;;;9.10;99.90;;;;;;5034925;28;20036;-92
2024/02/21 11:54:08;;;;;;;0.28;0.28;;;9.20;99.90;;;;;;5034219;28;20030;-92
2024/02/21 11:56:35;;;;;;;0.57;0.30;;;9.20;99.90;;;;;;5034511;28;20018;-93
2024/02/21 11:59:00;;;;;;;0.40;0.40;;;9.20;99.90;;;;;;5034138;28;20025;-92
2024/02/21 12:01:26;;;;;;;0.95;0.70;;;9.30;99.90;;;;;;5034169;28;20021;-93
2024/02/21 12:03:52;;;;;;;1.95;0.88;;;9.30;99.90;;;;;;5034441;28;20478;-92
2024/02/21 12:06:20;;;;;;;0.40;0.30;;;9.30;99.90;;;;;;5034141;28;20112;-91
2024/02/21 12:08:46;;;;;;;0.93;0.35;;;9.30;99.90;;;;;;5033749;28;20041;-91
2024/02/21 12:11:22;;;;;;;0.30;0.30;;;9.40;99.90;;;;;;5033712;28;20057;-92
2024/02/21 12:14:03;;;;;;;0.20;0.20;;;9.40;99.90;;;;;;5017804;28;20029;-91
2024/02/21 12:16:30;;;;;;;;;;;9.40;99.90;;;;;;5015825;28;20018;-90
2024/02/21 12:18:56;;;;;;;0.32;0.30;;;9.50;99.90;;;;;;5015271;28;19920;-92
2024/02/21 12:21:37;;;;;;;1.00;0.40;;;9.50;99.90;;;;;;5027079;28;20025;-91
2024/02/21 12:24:23;;;;;;;0.77;0.57;;;9.50;99.90;;;;;;5030305;28;20037;-90
2024/02/21 12:26:49;;;;;;;0.40;0.30;;;9.50;99.90;;;;;;5031672;28;20117;-91
2024/02/21 12:29:15;;;;;;;0.52;0.38;;;9.50;99.90;;;;;;5033184;28;20064;-90
2024/02/21 12:31:40;;;;;;;0.73;0.47;;;9.50;99.90;;;;;;5033389;28;20033;-91
2024/02/21 12:34:06;;;;;;;1.17;0.68;;;9.50;99.90;;;;;;5033320;28;20025;-91
2024/02/21 12:36:33;;;;;;;1.00;0.90;;;9.60;99.90;;;;;;5034115;28;20475;-90
2024/02/21 12:39:01;;;;;;;3.70;2.03;;;9.60;99.90;;;;;;5036140;28;20030;-92
2024/02/21 12:41:27;;;;;;;2.42;1.40;;;9.60;99.90;;;;;;5034836;28;20425;-91
2024/02/21 12:43:54;;;;;;;1.25;0.77;;;9.60;99.90;;;;;;4997684;28;20030;-94
2024/02/21 12:46:19;;;;;;;0.95;0.70;;;9.70;99.90;;;;;;4996179;28;20030;-92
2024/02/21 12:48:45;;;;;;;0.70;0.55;;;9.70;99.90;;;;;;4997798;28;20142;-92
2024/02/21 12:51:11;;;;;;;1.70;0.40;;;9.70;99.90;;;;;;5004415;28;20030;-92
2024/02/21 12:53:43;;;;;;;0.38;0.35;;;9.70;99.90;;;;;;5018115;28;20033;-95
2024/02/21 12:56:10;;;;;;;0.28;0.28;;;9.80;99.90;;;;;;5002099;28;20049;-95